.
WxDataArchive / Data Records for 2008-08-25
2008-08-24 August 2008 2008-08-26

Data Records for Monday, 25 August 2008

Time	Temp	Chill	HIndex	Humid	Dewpt	 Wind 	HiWind	WindDir	Rain 	Barom 
-----	----	-----	------	-----	-----	------	------	-------	-----	----- 
00:00	62.6	62.6	62.6	76	54.9	0	1	270	0.00	29.940 
00:05	62.4	62.4	62.4	76	54.7	0	1	270	0.00	29.940 
00:10	62.4	62.4	62.4	76	54.7	0	1	270	0.00	29.939 
00:15	62.3	62.3	62.3	77	55.0	0	1	270	0.00	29.941 
00:20	62.1	62.1	62.1	77	54.8	0	1	270	0.00	29.940 
00:25	62.0	62.0	62.0	77	54.7	0	1	270	0.00	29.943 
00:30	62.0	62.0	62.0	77	54.7	0	1	270	0.00	29.942 
00:35	61.8	61.8	61.8	77	54.5	0	1	270	0.00	29.943 
00:40	61.8	61.8	61.8	77	54.5	0	1	270	0.00	29.944 
00:45	61.8	61.8	61.8	78	54.9	0	1	270	0.00	29.945 
00:50	61.8	61.8	61.8	78	54.9	0	1	270	0.00	29.944 
00:55	61.8	61.8	61.8	78	54.9	0	2	270	0.00	29.944 
01:00	61.6	61.6	61.6	78	54.7	0	1	270	0.00	29.942 
01:05	61.6	61.6	61.6	78	54.7	0	1	270	0.00	29.942 
01:10	61.5	61.5	61.5	78	54.6	0	0	---	0.00	29.942 
01:15	61.5	61.5	61.5	79	54.9	0	1	270	0.00	29.940 
01:20	61.3	61.3	61.3	79	54.7	0	1	270	0.00	29.941 
01:25	61.2	61.2	61.2	79	54.6	0	1	270	0.00	29.940 
01:30	61.2	61.2	61.2	79	54.6	0	0	---	0.00	29.943 
01:35	61.0	61.0	61.0	80	54.8	0	0	---	0.00	29.943 
01:40	60.9	60.9	60.9	80	54.7	0	0	---	0.00	29.945 
01:45	60.7	60.7	60.7	81	54.8	0	1	270	0.00	29.942 
01:50	60.7	60.7	60.7	81	54.8	0	0	---	0.00	29.940 
01:55	60.7	60.7	60.7	81	54.8	0	0	---	0.00	29.939 
02:00	60.5	60.5	60.5	81	54.6	0	1	270	0.00	29.938 
02:05	60.5	60.5	60.5	81	54.6	0	0	---	0.00	29.938 
02:10	60.4	60.4	60.4	82	54.9	0	1	270	0.00	29.937 
02:15	60.4	60.4	60.4	82	54.9	0	1	270	0.00	29.937 
02:20	60.4	60.4	60.4	82	54.9	0	0	---	0.00	29.939 
02:25	60.2	60.2	60.2	82	54.7	0	1	270	0.00	29.938 
02:30	60.2	60.2	60.2	83	55.0	0	1	270	0.00	29.938 
02:35	60.1	60.1	60.1	83	54.9	0	1	270	0.00	29.935 
02:40	60.1	60.1	60.1	84	55.2	0	0	---	0.00	29.936 
02:45	60.1	60.1	60.1	84	55.2	0	1	270	0.00	29.936 
02:50	60.1	60.1	60.1	84	55.2	0	1	292	0.00	29.936 
02:55	60.2	60.2	60.2	84	55.3	0	1	292	0.00	29.936 
03:00	60.1	60.1	60.1	84	55.2	0	1	292	0.00	29.937 
03:05	60.1	60.1	60.1	84	55.2	0	3	135	0.00	29.938 
03:10	60.1	60.1	60.1	84	55.2	0	3	135	0.00	29.939 
03:15	60.1	60.1	60.1	84	55.2	0	1	135	0.00	29.941 
03:20	59.9	59.9	59.9	85	55.4	0	2	135	0.00	29.940 
03:25	59.9	59.9	59.9	85	55.4	0	1	135	0.00	29.941 
03:30	59.8	59.8	59.8	85	55.3	0	1	135	0.00	29.940 
03:35	59.6	59.6	59.6	86	55.4	0	0	---	0.00	29.945 
03:40	59.6	59.6	59.6	86	55.4	0	4	135	0.00	29.947 
03:45	59.6	59.6	59.6	86	55.4	0	1	135	0.00	29.949 
03:50	59.6	59.6	59.6	87	55.7	0	5	158	0.00	29.949 
03:55	59.6	59.6	59.6	87	55.7	0	2	158	0.00	29.948 
04:00	59.8	59.8	59.8	88	56.2	0	3	158	0.00	29.948 
04:05	59.9	59.9	59.9	87	56.0	1	6	112	0.00	29.952 
04:10	60.2	60.2	60.2	87	56.3	0	3	112	0.00	29.952 
04:15	60.4	60.4	60.4	86	56.2	1	3	112	0.00	29.952 
04:20	60.4	60.4	60.4	86	56.2	1	2	112	0.00	29.953 
04:25	60.5	60.5	60.5	86	56.3	1	4	112	0.00	29.953 
04:30	60.5	60.5	60.5	86	56.3	1	4	135	0.00	29.953 
04:35	60.5	60.5	60.5	86	56.3	0	3	135	0.00	29.954 
04:40	60.5	60.5	60.5	86	56.3	0	3	135	0.00	29.960 
04:45	60.5	60.5	60.5	86	56.3	0	2	135	0.00	29.962 
04:50	60.4	60.4	60.4	86	56.2	1	4	90	0.00	29.964 
04:55	60.4	60.4	60.4	86	56.2	1	3	112	0.00	29.965 
05:00	60.2	60.2	60.2	87	56.3	1	3	112	0.00	29.965 
05:05	60.1	60.1	60.1	87	56.2	0	1	135	0.00	29.967 
05:10	60.1	60.1	60.1	87	56.2	1	3	135	0.00	29.968 
05:15	59.9	59.9	59.9	88	56.3	1	3	135	0.00	29.969 
05:20	59.9	59.9	59.9	88	56.3	0	1	135	0.00	29.970 
05:25	59.8	59.8	59.8	88	56.2	0	1	135	0.00	29.970 
05:30	59.9	59.9	59.9	88	56.3	0	2	135	0.00	29.972 
05:35	59.9	59.9	59.9	89	56.6	0	2	135	0.00	29.972 
05:40	59.9	59.9	59.9	89	56.6	1	4	135	0.00	29.973 
05:45	59.9	59.9	59.9	89	56.6	0	2	135	0.00	29.972 
05:50	59.9	59.9	59.9	89	56.6	0	5	112	0.00	29.973 
05:55	59.9	59.9	59.9	89	56.6	0	3	112	0.00	29.975 
06:00	59.9	59.9	59.9	89	56.6	1	6	135	0.00	29.979 
06:05	59.8	59.8	59.8	89	56.5	0	1	135	0.00	29.982 
06:10	59.8	59.8	59.8	90	56.9	0	3	112	0.00	29.984 
06:15	59.8	59.8	59.8	90	56.9	0	2	135	0.00	29.984 
06:20	59.6	59.6	59.6	90	56.7	0	3	90	0.00	29.987 
06:25	59.8	59.8	59.8	90	56.9	1	3	90	0.00	29.988 
06:30	59.9	59.9	59.9	91	57.3	0	4	112	0.00	29.990 
06:35	60.1	60.1	60.1	91	57.5	0	3	112	0.00	29.993 
06:40	60.4	60.4	60.4	90	57.4	0	3	68	0.00	29.994 
06:45	60.5	60.5	60.5	90	57.5	1	3	112	0.00	29.997 
06:50	60.7	60.7	60.7	90	57.7	1	5	90	0.00	29.998 
06:55	60.9	60.9	60.9	89	57.6	1	4	90	0.00	29.999 
07:00	61.0	61.0	61.0	89	57.7	1	4	135	0.00	29.999 
07:05	61.2	61.2	61.2	88	57.6	1	3	112	0.00	30.004 
07:10	61.3	61.3	61.3	88	57.7	1	5	112	0.00	30.006 
07:15	61.5	61.5	61.5	87	57.6	1	3	90	0.00	30.007 
07:20	61.8	61.8	61.8	87	57.9	1	2	90	0.00	30.007 
07:25	62.0	62.0	62.0	86	57.8	1	5	135	0.00	30.009 
07:30	62.4	62.4	62.4	86	58.2	0	2	68	0.00	30.014 
07:35	62.6	62.6	62.6	84	57.7	2	6	112	0.00	30.015 
07:40	62.9	62.9	62.9	83	57.7	1	4	90	0.00	30.016 
07:45	63.1	63.1	63.1	82	57.5	2	6	112	0.00	30.015 
07:50	63.2	63.2	63.2	81	57.3	2	7	112	0.00	30.017 
07:55	63.5	63.5	63.5	80	57.2	3	7	90	0.00	30.016 
08:00	63.7	63.7	63.7	79	57.1	3	11	90	0.00	30.019 
08:05	63.7	63.7	63.7	79	57.1	2	6	90	0.00	30.022 
08:10	63.7	63.7	63.7	79	57.1	4	10	90	0.00	30.020 
08:15	63.7	63.7	63.7	78	56.7	3	6	90	0.00	30.021 
08:20	63.9	63.9	63.9	78	56.9	3	7	112	0.00	30.020 
08:25	64.0	64.0	64.0	78	57.0	4	7	90	0.00	30.019 
08:30	64.2	64.2	64.2	77	56.8	3	7	90	0.00	30.018 
08:35	64.5	64.5	64.5	78	57.5	2	5	112	0.00	30.020 
08:40	64.8	64.8	64.8	76	57.0	2	6	112	0.00	30.021 
08:45	65.0	65.0	65.0	75	56.9	3	9	68	0.00	30.021 
08:50	65.2	65.2	65.2	76	57.4	3	5	112	0.00	30.022 
08:55	65.3	65.3	65.3	75	57.2	4	10	90	0.00	30.022 
09:00	65.6	65.6	65.6	76	57.8	2	6	112	0.00	30.021 
09:05	66.0	66.0	66.0	74	57.5	2	4	90	0.00	30.024 
09:10	66.1	66.1	66.1	73	57.2	2	7	112	0.00	30.024 
09:15	66.4	66.4	66.4	73	57.5	2	7	68	0.00	30.024 
09:20	66.6	66.6	66.6	72	57.3	3	10	68	0.00	30.024 
09:25	66.4	66.4	66.4	72	57.1	2	6	68	0.00	30.023 
09:30	66.8	66.8	66.8	72	57.5	3	9	135	0.00	30.024 
09:35	67.3	67.3	67.3	71	57.6	3	7	90	0.00	30.025 
09:40	67.8	67.8	67.8	70	57.6	2	5	90	0.00	30.026 
09:45	68.3	68.3	68.3	70	58.1	2	6	90	0.00	30.025 
09:50	69.3	69.3	69.3	67	57.9	2	7	90	0.00	30.023 
09:55	70.1	70.1	70.1	66	58.2	2	5	112	0.00	30.023 
10:00	70.8	70.8	70.8	64	58.0	2	6	90	0.00	30.024 
10:05	70.9	70.9	70.9	65	58.5	3	10	90	0.00	30.028 
10:10	70.6	70.6	70.6	64	57.8	4	10	90	0.00	30.029 
10:15	70.6	70.6	70.6	65	58.2	3	7	112	0.00	30.027 
10:20	71.1	71.1	71.1	64	58.3	2	6	112	0.00	30.025 
10:25	71.8	71.8	71.8	62	58.1	2	4	112	0.00	30.025 
10:30	72.5	72.5	72.5	61	58.3	2	6	90	0.00	30.027 
10:35	72.7	72.7	72.7	60	58.0	3	8	112	0.00	30.029 
10:40	72.8	72.8	72.8	60	58.1	4	11	112	0.00	30.026 
10:45	72.5	72.5	72.5	60	57.8	4	11	90	0.00	30.026 
10:50	73.2	73.2	73.2	60	58.5	2	6	90	0.00	30.026 
10:55	74.0	74.0	74.0	58	58.3	2	10	90	0.00	30.025 
11:00	74.2	74.2	74.2	57	58.0	2	7	135	0.00	30.023 
11:05	74.4	74.4	74.4	58	58.6	3	9	90	0.00	30.024 
11:10	74.9	74.9	74.9	56	58.1	2	7	112	0.00	30.026 
11:15	74.9	74.9	74.9	55	57.6	3	7	90	0.00	30.023 
11:20	74.7	74.7	74.7	52	55.9	4	11	90	0.00	30.023 
11:25	74.6	74.6	74.6	52	55.8	4	11	90	0.00	30.020 
11:30	74.9	74.9	74.9	51	55.5	2	5	112	0.00	30.019 
11:35	74.9	74.9	74.9	52	56.1	4	13	90	0.00	30.019 
11:40	74.9	74.9	74.9	52	56.1	3	9	112	0.00	30.018 
11:45	74.6	74.6	74.6	54	56.8	2	7	112	0.00	30.016 
11:50	74.6	74.6	74.6	51	55.3	4	12	90	0.00	30.015 
11:55	75.1	75.1	77.7	51	55.7	4	13	90	0.00	30.017 
12:00	75.6	75.6	77.9	50	55.6	3	11	90	0.00	30.015 
12:05	75.6	75.6	77.9	50	55.6	4	10	90	0.00	30.011 
12:10	76.0	76.0	78.1	49	55.4	4	12	90	0.00	30.009 
12:15	76.1	76.1	78.1	49	55.5	3	10	112	0.00	30.005 
12:20	75.8	75.8	78.0	48	54.7	4	10	90	0.00	30.007 
12:25	76.0	76.0	78.0	48	54.9	3	7	90	0.00	30.005 
12:30	76.0	76.0	78.0	48	54.9	4	13	90	0.00	30.004 
12:35	76.0	76.0	78.0	47	54.3	3	9	90	0.00	30.004 
12:40	76.1	76.1	78.0	46	53.8	3	6	90	0.00	30.005 
12:45	76.8	76.8	78.3	45	53.8	2	6	90	0.00	30.004 
12:50	77.0	77.0	78.4	45	54.0	3	10	90	0.00	30.003 
12:55	77.0	77.0	78.5	46	54.6	4	9	90	0.00	30.004 
13:00	77.2	77.2	78.5	43	52.9	3	10	112	0.00	30.003 
13:05	77.0	77.0	78.4	44	53.4	3	7	112	0.00	30.000 
13:10	77.4	77.4	78.6	44	53.8	2	6	90	0.00	29.999 
13:15	77.2	77.2	78.6	46	54.8	4	11	90	0.00	30.002 
13:20	77.0	77.0	78.4	44	53.4	5	10	90	0.00	29.998 
13:25	77.0	77.0	78.4	44	53.4	3	7	90	0.00	30.000 
13:30	77.2	77.2	78.5	44	53.6	4	11	90	0.00	29.994 
13:35	76.8	76.8	78.3	43	52.6	3	11	90	0.00	29.991 
13:40	76.8	76.8	78.3	43	52.6	5	10	90	0.00	29.990 
13:45	77.0	77.0	78.4	45	54.0	3	7	90	0.00	29.990 
13:50	77.4	77.4	78.6	43	53.1	4	10	90	0.00	29.989 
13:55	77.9	77.9	78.9	44	54.2	2	10	112	0.00	29.989 
14:00	78.5	78.5	79.1	42	53.5	2	9	68	0.00	29.989 
14:05	78.8	78.8	79.3	42	53.7	2	6	112	0.00	29.988 
14:10	79.0	79.0	79.4	41	53.3	2	9	90	0.00	29.987 
14:15	78.8	78.8	79.2	40	52.4	4	8	112	0.00	29.987 
14:20	78.3	78.3	78.9	41	52.6	4	12	90	0.00	29.985 
14:25	78.1	78.1	78.9	42	53.1	3	10	90	0.00	29.982 
14:30	78.3	78.3	78.9	40	52.0	4	8	112	0.00	29.981 
14:35	77.9	77.9	78.7	40	51.6	4	10	90	0.00	29.982 
14:40	77.9	77.9	78.7	41	52.3	4	9	112	0.00	29.978 
14:45	78.3	78.3	78.9	40	52.0	2	11	90	0.00	29.976 
14:50	78.6	78.6	79.1	41	52.9	3	7	90	0.00	29.974 
14:55	78.8	78.8	79.3	42	53.7	2	6	112	0.00	29.975 
15:00	79.0	79.0	79.2	39	51.9	1	4	112	0.00	29.974 
15:05	79.2	79.2	79.3	38	51.4	3	8	90	0.00	29.977 
15:10	79.0	79.0	79.2	39	51.9	2	7	90	0.00	29.974 
15:15	79.0	79.0	79.3	40	52.6	1	6	112	0.00	29.973 
15:20	78.8	78.8	79.1	39	51.7	3	7	112	0.00	29.973 
15:25	78.8	78.8	79.1	39	51.7	2	9	90	0.00	29.974 
15:30	79.0	79.0	79.2	39	51.9	1	5	135	0.00	29.973 
15:35	79.4	79.4	79.4	38	51.6	2	6	90	0.00	29.973 
15:40	79.2	79.2	79.2	37	50.7	2	6	112	0.00	29.974 
15:45	79.2	79.2	79.3	38	51.4	2	6	112	0.00	29.973 
15:50	79.0	79.0	79.2	38	51.2	2	5	90	0.00	29.974 
15:55	78.8	78.8	79.0	37	50.3	4	11	112	0.00	29.976 
16:00	78.6	78.6	78.9	38	50.8	2	7	90	0.00	29.975 
16:05	78.6	78.6	78.9	37	50.1	4	10	90	0.00	29.976 
16:10	78.3	78.3	78.7	37	49.9	3	11	90	0.00	29.979 
16:15	78.1	78.1	78.7	39	51.1	3	8	90	0.00	29.976 
16:20	78.3	78.3	78.8	39	51.3	2	7	90	0.00	29.975 
16:25	78.5	78.5	78.8	37	50.0	2	6	112	0.00	29.975 
16:30	78.3	78.3	78.7	37	49.9	2	5	112	0.00	29.975 
16:35	78.1	78.1	78.7	38	50.4	3	7	90	0.00	29.975 
16:40	77.9	77.9	78.6	38	50.2	2	7	112	0.00	29.975 
16:45	77.9	77.9	78.6	39	50.9	2	6	68	0.00	29.977 
16:50	77.9	77.9	78.6	39	50.9	1	4	112	0.00	29.977 
16:55	77.7	77.7	78.4	37	49.3	3	7	90	0.00	29.978 
17:00	77.4	77.4	78.3	37	49.1	2	5	135	0.00	29.976 
17:05	77.4	77.4	78.3	38	49.8	2	6	112	0.00	29.978 
17:10	77.2	77.2	78.3	39	50.3	1	5	112	0.00	29.976 
17:15	77.0	77.0	78.1	38	49.4	2	6	68	0.00	29.975 
17:20	76.7	76.7	78.0	38	49.2	1	4	112	0.00	29.975 
17:25	76.7	76.7	78.1	39	49.9	1	7	112	0.00	29.975 
17:30	76.5	76.5	78.0	40	50.4	1	4	90	0.00	29.974 
17:35	76.5	76.5	78.1	43	52.3	2	9	90	0.00	29.974 
17:40	76.1	76.1	78.0	43	52.0	3	6	90	0.00	29.974 
17:45	75.8	75.8	77.9	44	52.3	3	7	90	0.00	29.974 
17:50	75.4	75.4	77.7	44	52.0	2	5	90	0.00	29.974 
17:55	75.3	75.3	77.7	44	51.9	3	6	90	0.00	29.976 
18:00	75.3	75.3	77.7	43	51.2	3	6	90	0.00	29.977 
18:05	75.1	75.1	77.6	44	51.7	3	7	90	0.00	29.974 
18:10	74.7	74.7	74.7	45	51.9	2	5	90	0.00	29.974 
18:15	74.6	74.6	74.6	45	51.8	2	5	90	0.00	29.973 
18:20	74.4	74.4	74.4	46	52.3	2	5	90	0.00	29.974 
18:25	74.2	74.2	74.2	45	51.5	2	6	90	0.00	29.974 
18:30	74.0	74.0	74.0	44	50.7	2	5	90	0.00	29.974 
18:35	73.9	73.9	73.9	44	50.6	1	4	112	0.00	29.974 
18:40	73.7	73.7	73.7	46	51.6	1	5	112	0.00	29.975 
18:45	73.5	73.5	73.5	48	52.6	2	4	90	0.00	29.975 
18:50	73.2	73.2	73.2	48	52.3	1	4	90	0.00	29.975 
18:55	73.0	73.0	73.0	49	52.7	1	2	112	0.00	29.975 
19:00	72.7	72.7	72.7	50	53.0	1	2	112	0.00	29.975 
19:05	72.3	72.3	72.3	50	52.6	1	3	90	0.00	29.974 
19:10	72.0	72.0	72.0	51	52.9	0	2	90	0.00	29.974 
19:15	71.6	71.6	71.6	52	53.0	0	2	90	0.00	29.975 
19:20	71.1	71.1	71.1	53	53.1	0	1	90	0.00	29.976 
19:25	70.8	70.8	70.8	54	53.3	0	2	90	0.00	29.976 
19:30	70.4	70.4	70.4	55	53.4	0	1	90	0.00	29.976 
19:35	70.1	70.1	70.1	56	53.7	0	2	90	0.00	29.977 
19:40	69.8	69.8	69.8	56	53.4	0	2	90	0.00	29.977 
19:45	69.4	69.4	69.4	57	53.5	0	1	90	0.00	29.980 
19:50	69.1	69.1	69.1	57	53.2	0	2	90	0.00	29.985 
19:55	68.8	68.8	68.8	58	53.4	0	2	90	0.00	29.988 
20:00	68.4	68.4	68.4	59	53.5	0	1	90	0.00	29.991 
20:05	68.1	68.1	68.1	59	53.2	0	1	90	0.00	29.990 
20:10	67.8	67.8	67.8	61	53.9	0	0	---	0.00	29.991 
20:15	67.3	67.3	67.3	61	53.4	0	0	---	0.00	29.993 
20:20	66.9	66.9	66.9	62	53.4	0	0	---	0.00	29.994 
20:25	66.4	66.4	66.4	62	53.0	0	1	90	0.00	29.996 
20:30	66.1	66.1	66.1	63	53.1	0	1	90	0.00	29.996 
20:35	66.0	66.0	66.0	63	53.0	1	3	90	0.00	29.996 
20:40	66.0	66.0	66.0	63	53.0	1	4	90	0.00	29.997 
20:45	66.0	66.0	66.0	63	53.0	1	3	90	0.00	30.000 
20:50	65.8	65.8	65.8	64	53.3	1	2	90	0.00	30.002 
20:55	65.5	65.5	65.5	64	53.0	0	2	90	0.00	30.003 
21:00	65.3	65.3	65.3	65	53.2	1	2	90	0.00	30.007 
21:05	65.0	65.0	65.0	65	52.9	1	2	90	0.00	30.004 
21:10	64.7	64.7	64.7	65	52.7	1	3	90	0.00	30.004 
21:15	64.5	64.5	64.5	65	52.5	1	3	90	0.00	30.005 
21:20	64.2	64.2	64.2	65	52.2	1	4	90	0.00	30.007 
21:25	64.0	64.0	64.0	65	52.0	1	4	90	0.00	30.008 
21:30	63.9	63.9	63.9	65	51.9	1	4	90	0.00	30.010 
21:35	63.7	63.7	63.7	65	51.7	1	3	90	0.00	30.011 
21:40	63.5	63.5	63.5	65	51.5	1	3	90	0.00	30.014 
21:45	63.2	63.2	63.2	65	51.2	1	4	90	0.00	30.013 
21:50	63.2	63.2	63.2	65	51.2	1	3	90	0.00	30.013 
21:55	63.1	63.1	63.1	66	51.6	0	2	90	0.00	30.018 
22:00	62.7	62.7	62.7	66	51.2	0	2	90	0.00	30.019 
22:05	62.6	62.6	62.6	67	51.5	0	3	90	0.00	30.019 
22:10	62.3	62.3	62.3	67	51.2	0	3	90	0.00	30.020 
22:15	62.1	62.1	62.1	67	51.0	0	1	90	0.00	30.021 
22:20	61.8	61.8	61.8	68	51.1	0	2	90	0.00	30.021 
22:25	61.6	61.6	61.6	68	50.9	0	2	90	0.00	30.020 
22:30	61.5	61.5	61.5	68	50.8	1	2	90	0.00	30.018 
22:35	61.3	61.3	61.3	69	51.0	1	2	90	0.00	30.022 
22:40	61.3	61.3	61.3	69	51.0	1	4	90	0.00	30.022 
22:45	61.2	61.2	61.2	69	50.9	1	2	90	0.00	30.021 
22:50	61.2	61.2	61.2	69	50.9	1	2	90	0.00	30.022 
22:55	61.0	61.0	61.0	70	51.1	0	2	90	0.00	30.021 
23:00	60.9	60.9	60.9	70	51.0	0	2	90	0.00	30.021 
23:05	60.5	60.5	60.5	71	51.0	0	1	90	0.00	30.021 
23:10	60.4	60.4	60.4	71	50.9	0	1	90	0.00	30.021 
23:15	60.2	60.2	60.2	72	51.1	0	1	90	0.00	30.021 
23:20	60.1	60.1	60.1	72	51.0	0	2	90	0.00	30.021 
23:25	59.9	59.9	59.9	73	51.2	0	1	90	0.00	30.021 
23:30	59.8	59.8	59.8	73	51.1	0	2	90	0.00	30.020 
23:35	59.8	59.8	59.8	73	51.1	0	3	90	0.00	30.020 
23:40	59.6	59.6	59.6	73	50.9	0	1	90	0.00	30.022 
23:45	59.6	59.6	59.6	73	50.9	0	1	90	0.00	30.023 
23:50	59.3	59.3	59.3	74	51.0	0	0	---	0.00	30.022 
23:55	59.2	59.2	59.2	75	51.3	0	1	90	0.00	30.023 

CoCoRaHS
IN-AL-39
A2 Web Hosting
Creative Commons License
GoDaddy
Look for:

loaded 2017-12-13 09:46:52 • last modified 2010-11-18 10:43:29
Privacy PolicyDisclaimer
• wx.awcolley.com is powered by PmWiki v.2002016 •
• all content (unless otherwise noted) © 2017 A W Colley